Time;durP1;ratioP1;P1;durP2;ratioP2;P2;SDS_P1;SDS_P2;PMS_P1;PMS_P2;Temp;Humidity;BMP_temperature;BMP_pressure;BME280_temperature;BME280_humidity;BME280_pressure;Samples;Min_cycle;Max_cycle;Signal;HPM_P1;HPM_P2
2021/05/12 00:02:28;;;;;;;27.40;18.80;;;;;;;;;;5055878;28;20053;-64
2021/05/12 00:05:13;;;;;;;28.00;19.33;;;;;;;;;;5055533;28;20206;-63
2021/05/12 00:07:59;;;;;;;29.42;20.02;;;;;;;;;;5056091;28;20411;-62
2021/05/12 00:10:44;;;;;;;35.20;21.38;;;;;;;;;;5035215;28;20415;-63
2021/05/12 00:13:29;;;;;;;23.75;17.23;;;;;;;;;;5035007;28;20411;-64
2021/05/12 00:16:15;;;;;;;29.77;19.90;;;;;;;;;;5035828;28;20049;-64
2021/05/12 00:19:01;;;;;;;27.60;19.60;;;;;;;;;;5040383;28;20048;-64
2021/05/12 00:21:51;;;;;;;23.90;17.60;;;;;;;;;;5056353;28;20048;-64
2021/05/12 00:24:36;;;;;;;26.33;18.70;;;;;;;;;;5055696;28;20048;-62
2021/05/12 00:27:21;;;;;;;24.83;18.25;;;;;;;;;;5054497;28;20502;-62
2021/05/12 00:30:07;;;;;;;23.77;16.98;;;;;;;;;;5051587;28;20510;-62
2021/05/12 00:32:53;;;;;;;31.80;21.17;;;;;;;;;;5054230;28;20087;-62
2021/05/12 00:35:38;;;;;;;26.23;18.30;;;;;;;;;;5054198;28;20041;-62
2021/05/12 00:38:23;;;;;;;24.65;18.45;;;;;;;;;;5054478;28;20052;-63
2021/05/12 00:41:09;;;;;;;24.83;18.63;;;;;;;;;;5052248;28;20491;-62
2021/05/12 00:43:54;;;;;;;21.85;17.98;;;;;;;;;;5054255;28;20091;-62
2021/05/12 00:46:43;;;;;;;28.20;18.55;;;;;;;;;;5054110;28;20072;-62
2021/05/12 00:49:29;;;;;;;25.60;19.60;;;;;;;;;;5053440;28;20446;-65
2021/05/12 00:52:14;;;;;;;27.25;18.90;;;;;;;;;;5014145;28;20053;-63
2021/05/12 00:55:00;;;;;;;26.77;20.20;;;;;;;;;;5014209;28;20605;-61
2021/05/12 00:57:45;;;;;;;34.15;21.50;;;;;;;;;;5014119;28;20046;-62
2021/05/12 01:00:30;;;;;;;35.45;22.10;;;;;;;;;;5023280;28;20045;-64
2021/05/12 01:03:16;;;;;;;34.25;22.42;;;;;;;;;;5050413;28;20053;-62
2021/05/12 01:06:01;;;;;;;34.63;21.40;;;;;;;;;;5053630;28;20475;-63
2021/05/12 01:08:47;;;;;;;34.67;21.13;;;;;;;;;;5053726;28;20041;-63
2021/05/12 01:11:32;;;;;;;27.42;20.10;;;;;;;;;;5051619;28;20052;-63
2021/05/12 01:14:18;;;;;;;31.45;22.55;;;;;;;;;;5053502;28;20041;-63
2021/05/12 01:17:03;;;;;;;33.47;22.17;;;;;;;;;;5053666;28;20090;-63
2021/05/12 01:19:49;;;;;;;32.42;21.50;;;;;;;;;;5052189;28;20095;-63
2021/05/12 01:22:34;;;;;;;33.67;21.60;;;;;;;;;;5050677;28;20053;-63
2021/05/12 01:25:19;;;;;;;30.60;22.13;;;;;;;;;;5053520;28;20052;-63
2021/05/12 01:28:06;;;;;;;36.55;22.85;;;;;;;;;;5053326;28;20103;-63
2021/05/12 01:30:58;;;;;;;31.85;21.17;;;;;;;;;;5052859;28;20090;-63
2021/05/12 01:33:44;;;;;;;32.70;22.35;;;;;;;;;;5033361;28;20140;-62
2021/05/12 01:36:29;;;;;;;31.27;22.55;;;;;;;;;;5033240;28;20443;-62
2021/05/12 01:39:15;;;;;;;28.60;20.83;;;;;;;;;;5033037;28;20053;-62
2021/05/12 01:42:01;;;;;;;29.92;21.50;;;;;;;;;;5038275;28;20052;-63
2021/05/12 01:44:46;;;;;;;31.92;22.20;;;;;;;;;;5053078;28;20551;-62
2021/05/12 01:47:31;;;;;;;29.25;21.55;;;;;;;;;;5053133;28;20049;-62
2021/05/12 01:50:17;;;;;;;29.20;21.77;;;;;;;;;;5052531;28;20041;-62
2021/05/12 01:53:02;;;;;;;35.42;22.85;;;;;;;;;;5051214;28;20045;-62
2021/05/12 01:55:48;;;;;;;36.45;22.30;;;;;;;;;;5052912;28;20049;-62
2021/05/12 01:58:33;;;;;;;31.90;21.70;;;;;;;;;;5052542;28;20076;-62
2021/05/12 02:01:19;;;;;;;34.25;23.42;;;;;;;;;;5052905;28;20406;-63
2021/05/12 02:04:05;;;;;;;37.38;24.02;;;;;;;;;;5051118;28;20075;-64
2021/05/12 02:06:50;;;;;;;32.63;22.63;;;;;;;;;;5053401;28;20517;-64
2021/05/12 02:09:37;;;;;;;31.77;20.52;;;;;;;;;;5053007;28;20048;-63
2021/05/12 02:12:22;;;;;;;32.50;22.25;;;;;;;;;;5051477;28;20045;-64
2021/05/12 02:15:08;;;;;;;35.53;23.25;;;;;;;;;;5054172;28;20052;-63
2021/05/12 02:17:53;;;;;;;36.80;24.23;;;;;;;;;;5054401;28;20056;-65
2021/05/12 02:20:39;;;;;;;43.53;25.92;;;;;;;;;;5054082;28;20049;-64
2021/05/12 02:23:24;;;;;;;49.85;27.80;;;;;;;;;;5052450;28;20045;-64
2021/05/12 02:26:09;;;;;;;49.13;26.50;;;;;;;;;;5053663;28;20049;-63
2021/05/12 02:28:57;;;;;;;48.75;27.27;;;;;;;;;;5051900;28;20052;-62
2021/05/12 02:31:42;;;;;;;45.00;26.80;;;;;;;;;;5051408;28;20495;-62
2021/05/12 02:34:27;;;;;;;42.97;24.95;;;;;;;;;;5050650;28;20041;-62
2021/05/12 02:37:13;;;;;;;53.58;29.23;;;;;;;;;;5052170;28;20045;-62
2021/05/12 02:39:58;;;;;;;48.97;27.55;;;;;;;;;;5051682;28;20056;-62
2021/05/12 02:42:43;;;;;;;57.38;28.75;;;;;;;;;;5052093;28;20060;-62
2021/05/12 02:45:30;;;;;;;49.90;27.40;;;;;;;;;;5049811;28;20053;-62
2021/05/12 02:48:16;;;;;;;60.45;29.65;;;;;;;;;;5052435;28;20120;-64
2021/05/12 02:51:01;;;;;;;55.42;30.60;;;;;;;;;;5052629;28;20056;-63
2021/05/12 02:53:46;;;;;;;51.70;27.85;;;;;;;;;;5051420;28;20053;-60
2021/05/12 02:56:32;;;;;;;51.75;28.63;;;;;;;;;;5032435;28;20514;-63
2021/05/12 02:59:17;;;;;;;52.30;29.92;;;;;;;;;;5032545;28;20042;-63
2021/05/12 03:02:02;;;;;;;57.03;29.77;;;;;;;;;;5032319;28;20045;-64
2021/05/12 03:04:48;;;;;;;54.85;30.17;;;;;;;;;;5036648;28;20529;-64
2021/05/12 03:07:33;;;;;;;51.03;29.08;;;;;;;;;;5052312;28;20380;-63
2021/05/12 03:10:20;;;;;;;50.47;29.60;;;;;;;;;;5052568;28;20410;-63
2021/05/12 03:13:06;;;;;;;53.08;29.55;;;;;;;;;;5052582;28;20053;-64
2021/05/12 03:15:51;;;;;;;58.38;31.55;;;;;;;;;;5052075;28;20041;-62
2021/05/12 03:18:36;;;;;;;61.03;33.15;;;;;;;;;;5050403;28;20041;-64
2021/05/12 03:21:21;;;;;;;68.70;33.65;;;;;;;;;;5051930;28;20064;-63
2021/05/12 03:24:07;;;;;;;78.93;34.67;;;;;;;;;;5053432;28;20072;-62
2021/05/12 03:26:53;;;;;;;64.85;32.15;;;;;;;;;;5050656;28;20513;-64
2021/05/12 03:29:38;;;;;;;66.38;33.13;;;;;;;;;;5051931;28;20068;-64
2021/05/12 03:32:23;;;;;;;62.53;32.15;;;;;;;;;;5052175;28;20048;-63
2021/05/12 03:35:09;;;;;;;66.78;33.15;;;;;;;;;;5051965;28;20052;-64
2021/05/12 03:37:56;;;;;;;67.80;32.97;;;;;;;;;;5012563;28;20050;-63
2021/05/12 03:40:41;;;;;;;66.70;32.38;;;;;;;;;;5012594;28;20124;-64
2021/05/12 03:43:26;;;;;;;68.80;32.20;;;;;;;;;;5014770;28;20049;-63
2021/05/12 03:46:13;;;;;;;77.40;34.72;;;;;;;;;;5026626;28;20056;-63
2021/05/12 03:48:58;;;;;;;73.95;35.85;;;;;;;;;;5057047;28;20056;-64
2021/05/12 03:51:43;;;;;;;69.20;34.03;;;;;;;;;;5056675;28;20645;-64
2021/05/12 03:54:29;;;;;;;74.97;34.70;;;;;;;;;;5056918;28;20086;-64
2021/05/12 03:57:15;;;;;;;72.95;34.72;;;;;;;;;;5053621;28;20053;-63
2021/05/12 04:00:00;;;;;;;77.18;35.22;;;;;;;;;;5056249;28;20415;-64
2021/05/12 04:02:45;;;;;;;75.32;35.35;;;;;;;;;;5056508;28;20499;-65
2021/05/12 04:05:31;;;;;;;92.18;38.60;;;;;;;;;;5054294;28;20049;-64
2021/05/12 04:08:16;;;;;;;74.15;36.38;;;;;;;;;;5056196;28;20072;-63
2021/05/12 04:11:02;;;;;;;78.18;36.30;;;;;;;;;;5055389;28;20068;-63
2021/05/12 04:13:47;;;;;;;77.90;36.72;;;;;;;;;;5055265;28;20491;-64
2021/05/12 04:16:33;;;;;;;82.78;36.08;;;;;;;;;;5053390;28;20495;-65
2021/05/12 04:19:18;;;;;;;82.90;36.15;;;;;;;;;;5056039;28;20052;-61
2021/05/12 04:22:03;;;;;;;78.28;36.45;;;;;;;;;;5054641;28;20053;-62
2021/05/12 04:24:51;;;;;;;82.43;36.30;;;;;;;;;;5053399;28;20491;-62
2021/05/12 04:27:36;;;;;;;62.65;32.17;;;;;;;;;;5054500;28;20041;-62
2021/05/12 04:30:22;;;;;;;75.07;36.60;;;;;;;;;;5054027;28;20052;-62
2021/05/12 04:33:07;;;;;;;66.85;32.45;;;;;;;;;;5054254;28;20037;-62
2021/05/12 04:35:53;;;;;;;77.07;34.45;;;;;;;;;;5052830;28;20045;-62
2021/05/12 04:38:38;;;;;;;74.47;34.35;;;;;;;;;;5054154;28;20049;-62
2021/05/12 04:41:23;;;;;;;55.65;31.83;;;;;;;;;;5054015;28;20047;-62
2021/05/12 04:44:09;;;;;;;51.92;30.48;;;;;;;;;;5054201;28;20198;-62
2021/05/12 04:46:56;;;;;;;50.13;29.98;;;;;;;;;;5052415;28;20052;-62
2021/05/12 04:49:41;;;;;;;45.83;28.88;;;;;;;;;;5014057;28;20033;-62
2021/05/12 04:52:26;;;;;;;46.67;29.55;;;;;;;;;;5068349;22;20053;-63
2021/05/12 04:55:12;;;;;;;45.42;29.00;;;;;;;;;;5032626;28;20038;-64
2021/05/12 04:57:58;;;;;;;42.03;28.00;;;;;;;;;;5034261;28;20049;-63
2021/05/12 05:00:44;;;;;;;42.13;28.17;;;;;;;;;;5033725;28;20057;-61
2021/05/12 05:03:29;;;;;;;37.15;26.25;;;;;;;;;;5005800;28;20046;-61
2021/05/12 05:06:15;;;;;;;33.03;24.75;;;;;;;;;;5002090;28;20050;-61
2021/05/12 05:09:00;;;;;;;32.80;24.02;;;;;;;;;;5010643;28;20053;-61
2021/05/12 05:11:45;;;;;;;30.48;22.90;;;;;;;;;;5012703;28;20057;-61
2021/05/12 05:14:31;;;;;;;29.92;23.70;;;;;;;;;;5012398;28;20046;-61
2021/05/12 05:17:17;;;;;;;28.33;22.08;;;;;;;;;;4994335;28;20436;-62
2021/05/12 05:20:02;;;;;;;31.23;22.90;;;;;;;;;;5006052;28;20104;-61
2021/05/12 05:22:47;;;;;;;28.92;21.40;;;;;;;;;;4998840;28;20068;-62
2021/05/12 05:25:32;;;;;;;29.45;20.98;;;;;;;;;;5013419;28;20050;-62
2021/05/12 05:28:18;;;;;;;27.67;20.88;;;;;;;;;;5013545;28;20058;-62
2021/05/12 05:31:03;;;;;;;23.50;19.25;;;;;;;;;;5011474;28;20128;-63
2021/05/12 05:34:07;;;;;;;21.52;17.10;;;;;;;;;;5013477;28;20053;-61
2021/05/12 05:37:12;;;;;;;22.77;17.30;;;;;;;;;;5012424;28;20038;-63
2021/05/12 05:40:16;;;;;;;19.05;14.25;;;;;;;;;;4981768;28;20452;-61
2021/05/12 05:43:20;;;;;;;19.77;14.65;;;;;;;;;;4993344;28;20125;-62
2021/05/12 05:46:31;;;;;;;17.70;13.05;;;;;;;;;;4992956;28;20129;-61
2021/05/12 05:49:36;;;;;;;14.82;11.27;;;;;;;;;;5005953;28;20041;-61
2021/05/12 05:52:40;;;;;;;14.68;8.98;;;;;;;;;;5012588;28;20054;-61
2021/05/12 05:55:45;;;;;;;13.43;8.75;;;;;;;;;;5012999;28;20041;-61
2021/05/12 05:58:49;;;;;;;13.40;9.30;;;;;;;;;;5011938;28;20116;-63
2021/05/12 06:01:55;;;;;;;15.38;8.02;;;;;;;;;;5011237;28;20080;-61
2021/05/12 06:05:02;;;;;;;12.18;7.93;;;;;;;;;;5012197;28;20176;-61
2021/05/12 06:08:06;;;;;;;13.10;6.25;;;;;;;;;;5012854;28;20073;-61
2021/05/12 06:11:10;;;;;;;10.27;6.20;;;;;;;;;;5010533;28;20076;-61
2021/05/12 06:14:14;;;;;;;9.40;5.90;;;;;;;;;;5010977;28;20045;-61
2021/05/12 06:17:19;;;;;;;13.07;6.53;;;;;;;;;;5012264;28;20496;-61
2021/05/12 06:20:23;;;;;;;10.60;5.88;;;;;;;;;;5012625;28;20046;-62
2021/05/12 06:23:29;;;;;;;6.90;5.05;;;;;;;;;;5012310;28;20136;-61
2021/05/12 06:26:36;;;;;;;9.80;5.57;;;;;;;;;;5012112;28;20045;-61
2021/05/12 06:29:40;;;;;;;10.60;5.53;;;;;;;;;;5012433;28;20502;-61
2021/05/12 06:32:46;;;;;;;9.75;5.70;;;;;;;;;;5010828;28;20409;-61
2021/05/12 06:35:51;;;;;;;9.18;4.90;;;;;;;;;;5011933;28;20042;-61
2021/05/12 06:38:55;;;;;;;11.15;5.05;;;;;;;;;;5012607;28;20042;-61
2021/05/12 06:41:40;;;;;;;9.20;3.95;;;;;;;;;;5011329;28;20050;-61
2021/05/12 06:44:25;;;;;;;10.27;4.72;;;;;;;;;;4992059;28;20058;-61
2021/05/12 06:47:13;;;;;;;9.65;4.45;;;;;;;;;;4992783;28;20061;-62
2021/05/12 06:49:58;;;;;;;10.57;3.92;;;;;;;;;;4992355;28;20440;-62
2021/05/12 06:52:43;;;;;;;8.57;3.90;;;;;;;;;;4995940;28;20056;-61
2021/05/12 06:55:29;;;;;;;10.45;4.68;;;;;;;;;;5011690;28;20448;-61
2021/05/12 06:58:14;;;;;;;7.88;4.28;;;;;;;;;;5012271;28;20515;-62
2021/05/12 07:00:59;;;;;;;7.15;3.50;;;;;;;;;;5012117;28;20052;-62
2021/05/12 07:03:45;;;;;;;9.43;4.18;;;;;;;;;;5011276;28;20054;-62
2021/05/12 07:06:30;;;;;;;6.45;3.55;;;;;;;;;;5012157;28;20046;-61
2021/05/12 07:09:16;;;;;;;7.32;3.70;;;;;;;;;;5012289;28;20050;-61
2021/05/12 07:12:21;;;;;;;6.70;3.60;;;;;;;;;;4997623;28;20061;-61
2021/05/12 07:15:08;;;;;;;6.68;3.05;;;;;;;;;;5009810;28;20065;-62
2021/05/12 07:17:53;;;;;;;10.82;3.53;;;;;;;;;;5013929;28;20155;-62
2021/05/12 07:20:38;;;;;;;7.18;2.95;;;;;;;;;;5015842;28;20060;-62
2021/05/12 07:23:26;;;;;;;7.80;2.70;;;;;;;;;;5014244;28;20045;-62
2021/05/12 07:26:12;;;;;;;5.68;2.63;;;;;;;;;;5015223;28;20056;-62
2021/05/12 07:28:58;;;;;;;8.57;2.55;;;;;;;;;;5016025;28;20053;-62
2021/05/12 07:31:43;;;;;;;6.35;2.75;;;;;;;;;;5015516;28;20077;-62
2021/05/12 07:34:28;;;;;;;5.35;3.17;;;;;;;;;;5014729;28;20046;-62
2021/05/12 07:37:16;;;;;;;5.70;2.28;;;;;;;;;;5014989;28;20492;-62
2021/05/12 07:40:02;;;;;;;7.57;2.72;;;;;;;;;;5015250;28;20511;-63
2021/05/12 07:42:49;;;;;;;6.80;2.50;;;;;;;;;;5015647;28;20057;-62
2021/05/12 07:45:39;;;;;;;6.38;3.28;;;;;;;;;;5013096;28;20058;-62
2021/05/12 07:48:24;;;;;;;5.53;2.47;;;;;;;;;;5015127;28;20069;-63
2021/05/12 07:51:10;;;;;;;7.53;2.63;;;;;;;;;;5014959;28;20046;-63
2021/05/12 07:54:02;;;;;;;8.83;2.43;;;;;;;;;;5015492;28;20137;-63
2021/05/12 07:56:48;;;;;;;5.05;2.65;;;;;;;;;;5014086;28;20046;-63
2021/05/12 07:59:34;;;;;;;6.72;2.35;;;;;;;;;;5015142;28;20056;-63
2021/05/12 08:02:24;;;;;;;6.10;2.30;;;;;;;;;;5015042;28;20511;-65
2021/05/12 08:05:09;;;;;;;6.13;2.50;;;;;;;;;;5014364;28;20049;-64
2021/05/12 08:08:17;;;;;;;6.97;2.30;;;;;;;;;;4999431;28;20132;-65
2021/05/12 08:11:02;;;;;;;6.03;2.03;;;;;;;;;;5014624;28;20089;-65
2021/05/12 08:13:48;;;;;;;5.78;2.13;;;;;;;;;;5015092;28;20056;-64
2021/05/12 08:16:34;;;;;;;4.93;1.27;;;;;;;;;;5013843;28;20057;-64
2021/05/12 08:19:20;;;;;;;4.60;0.80;;;;;;;;;;5014683;28;20049;-64
2021/05/12 08:22:06;;;;;;;6.15;1.20;;;;;;;;;;5014716;28;20481;-64
2021/05/12 08:24:51;;;;;;;3.60;0.80;;;;;;;;;;5014922;28;20189;-63
2021/05/12 08:27:38;;;;;;;5.43;1.10;;;;;;;;;;5012978;28;20128;-62
2021/05/12 08:30:26;;;;;;;5.88;0.98;;;;;;;;;;5012967;28;20054;-62
2021/05/12 08:33:13;;;;;;;5.25;0.88;;;;;;;;;;5014466;28;20401;-61
2021/05/12 08:36:09;;;;;;;2.85;0.70;;;;;;;;;;5012666;28;20057;-62
2021/05/12 08:38:55;;;;;;;5.13;1.10;;;;;;;;;;5014050;28;20567;-62
2021/05/12 08:41:41;;;;;;;4.18;0.73;;;;;;;;;;5014263;28;20050;-63
2021/05/12 08:44:29;;;;;;;3.90;1.00;;;;;;;;;;4999345;28;20054;-64
2021/05/12 08:47:16;;;;;;;3.13;0.65;;;;;;;;;;4997478;28;20202;-63
2021/05/12 08:50:01;;;;;;;4.72;0.70;;;;;;;;;;4997545;28;20038;-63
2021/05/12 08:52:47;;;;;;;4.63;1.15;;;;;;;;;;4999425;28;20053;-64
2021/05/12 08:55:32;;;;;;;3.13;0.90;;;;;;;;;;4999468;28;20042;-63
2021/05/12 08:58:17;;;;;;;5.72;1.02;;;;;;;;;;5012826;28;20045;-63
2021/05/12 09:01:04;;;;;;;4.50;1.13;;;;;;;;;;5011970;28;20101;-63
2021/05/12 09:03:49;;;;;;;4.43;0.77;;;;;;;;;;5014310;28;20049;-63
2021/05/12 09:06:35;;;;;;;6.43;1.30;;;;;;;;;;5014151;28;20050;-63
2021/05/12 09:09:20;;;;;;;3.55;0.80;;;;;;;;;;4997694;28;20069;-64
2021/05/12 09:12:05;;;;;;;3.55;1.30;;;;;;;;;;4999250;28;20050;-63
2021/05/12 09:14:57;;;;;;;3.05;0.88;;;;;;;;;;5013782;28;20042;-63
2021/05/12 09:17:42;;;;;;;4.28;0.70;;;;;;;;;;5012769;28;20042;-62
2021/05/12 09:20:31;;;;;;;3.10;0.88;;;;;;;;;;5013784;28;20052;-64
2021/05/12 09:23:18;;;;;;;5.68;1.15;;;;;;;;;;5013659;28;20046;-64
2021/05/12 09:26:04;;;;;;;4.68;0.73;;;;;;;;;;5013675;28;20042;-65
2021/05/12 09:28:50;;;;;;;3.90;0.85;;;;;;;;;;5013061;28;20129;-64
2021/05/12 09:31:39;;;;;;;3.63;1.33;;;;;;;;;;4998532;28;20416;-64
2021/05/12 09:34:24;;;;;;;4.78;0.90;;;;;;;;;;5011725;28;20045;-64
2021/05/12 09:37:22;;;;;;;4.20;1.05;;;;;;;;;;4990857;28;20416;-64
2021/05/12 09:40:08;;;;;;;4.90;1.00;;;;;;;;;;5002072;28;20047;-64
2021/05/12 09:43:01;;;;;;;2.75;0.70;;;;;;;;;;5000441;28;20042;-66
2021/05/12 09:45:47;;;;;;;5.63;0.98;;;;;;;;;;4997608;28;20055;-66
2021/05/12 09:48:32;;;;;;;4.05;0.98;;;;;;;;;;4997599;28;20121;-66
2021/05/12 09:51:18;;;;;;;4.53;0.93;;;;;;;;;;4992052;28;20129;-65
2021/05/12 09:54:04;;;;;;;4.45;0.60;;;;;;;;;;4999528;28;20048;-65
2021/05/12 09:56:56;;;;;;;2.88;0.60;;;;;;;;;;5001355;28;20057;-65
2021/05/12 09:59:41;;;;;;;4.45;0.70;;;;;;;;;;4998973;28;20043;-66
2021/05/12 10:02:26;;;;;;;5.50;1.15;;;;;;;;;;4997470;28;20050;-66
2021/05/12 10:05:12;;;;;;;4.78;0.85;;;;;;;;;;5004259;28;20073;-66
2021/05/12 10:07:58;;;;;;;6.85;1.52;;;;;;;;;;4990274;28;20034;-64
2021/05/12 10:10:44;;;;;;;2.47;0.75;;;;;;;;;;4989184;28;20058;-65
2021/05/12 10:13:30;;;;;;;6.70;1.30;;;;;;;;;;4990561;28;20042;-65
2021/05/12 10:16:16;;;;;;;4.25;0.95;;;;;;;;;;4990691;28;20050;-66
2021/05/12 10:19:01;;;;;;;5.18;1.15;;;;;;;;;;4975519;28;20460;-66
2021/05/12 10:21:47;;;;;;;4.20;1.08;;;;;;;;;;4988956;28;20070;-66
2021/05/12 10:24:34;;;;;;;6.00;1.00;;;;;;;;;;4975786;28;20046;-66
2021/05/12 10:27:23;;;;;;;5.32;1.15;;;;;;;;;;4991199;28;20074;-66
2021/05/12 10:30:09;;;;;;;5.78;0.98;;;;;;;;;;5001559;28;20042;-66
2021/05/12 10:32:56;;;;;;;4.15;1.05;;;;;;;;;;4994537;28;20046;-66
2021/05/12 10:35:42;;;;;;;7.20;1.33;;;;;;;;;;5006481;28;20051;-66
2021/05/12 10:38:31;;;;;;;6.75;1.40;;;;;;;;;;4990762;28;20052;-63
2021/05/12 10:41:35;;;;;;;9.18;1.70;;;;;;;;;;5007202;28;20046;-63
2021/05/12 10:44:37;;;;;;;8.50;1.85;;;;;;;;;;5009044;28;20128;-63
2021/05/12 10:47:23;;;;;;;8.52;1.77;;;;;;;;;;5006154;28;20429;-62
2021/05/12 10:50:08;;;;;;;7.32;1.92;;;;;;;;;;4994857;28;20053;-63
2021/05/12 10:53:26;;;;;;;7.65;1.48;;;;;;;;;;4992797;28;20125;-63
2021/05/12 10:56:13;;;;;;;6.72;1.33;;;;;;;;;;4977111;28;20516;-63
2021/05/12 10:58:59;;;;;;;8.70;2.67;;;;;;;;;;5008572;28;20389;-63
2021/05/12 11:01:44;;;;;;;4.85;1.27;;;;;;;;;;5007750;28;20046;-63
2021/05/12 11:04:29;;;;;;;5.25;1.00;;;;;;;;;;5008628;28;20512;-62
2021/05/12 11:07:14;;;;;;;7.35;1.05;;;;;;;;;;4989709;28;20045;-63
2021/05/12 11:10:00;;;;;;;6.95;1.33;;;;;;;;;;5006485;28;20042;-62
2021/05/12 11:12:51;;;;;;;6.05;1.15;;;;;;;;;;5009468;28;20053;-63
2021/05/12 11:15:52;;;;;;;7.93;1.38;;;;;;;;;;4995459;28;20050;-63
2021/05/12 11:18:37;;;;;;;5.10;1.08;;;;;;;;;;5007994;28;20045;-63
2021/05/12 11:21:27;;;;;;;5.30;1.42;;;;;;;;;;5007987;28;20054;-63
2021/05/12 11:24:21;;;;;;;4.60;1.13;;;;;;;;;;5009736;28;20045;-63
2021/05/12 11:33:21;;;;;;;4.90;0.90;;;;;;;;;;4978349;28;20455;-62
2021/05/12 11:36:12;;;;;;;4.17;1.13;;;;;;;;;;5003405;28;20133;-62
2021/05/12 11:38:58;;;;;;;2.72;0.90;;;;;;;;;;4989666;28;20633;-62
2021/05/12 11:41:43;;;;;;;6.75;1.42;;;;;;;;;;5008909;28;20046;-62
2021/05/12 11:44:28;;;;;;;7.93;1.50;;;;;;;;;;5009689;28;20047;-62
2021/05/12 11:47:14;;;;;;;5.88;1.58;;;;;;;;;;5009362;28;20054;-62
2021/05/12 11:49:59;;;;;;;7.88;1.52;;;;;;;;;;5008475;28;20038;-62
2021/05/12 11:52:46;;;;;;;7.38;1.33;;;;;;;;;;5003061;28;20038;-62
2021/05/12 11:55:32;;;;;;;5.13;1.15;;;;;;;;;;5006426;28;20050;-62
2021/05/12 11:58:24;;;;;;;6.30;1.33;;;;;;;;;;5009555;28;20046;-62
2021/05/12 12:01:10;;;;;;;6.53;1.75;;;;;;;;;;4986667;28;20436;-63
2021/05/12 12:04:26;;;;;;;4.15;1.23;;;;;;;;;;5010502;28;20046;-63
2021/05/12 12:07:05;;;;;;;4.15;1.00;;;;;;;;;;5013151;28;20049;-63
2021/05/12 12:09:59;;;;;;;6.07;1.52;;;;;;;;;;5012180;28;20407;-64
2021/05/12 12:12:56;;;;;;;7.55;1.42;;;;;;;;;;4992244;28;20050;-63
2021/05/12 12:15:42;;;;;;;5.57;1.40;;;;;;;;;;4992698;28;20053;-63
2021/05/12 12:18:38;;;;;;;4.35;1.10;;;;;;;;;;4992856;28;20113;-63
2021/05/12 12:21:30;;;;;;;3.75;1.27;;;;;;;;;;4998655;28;20054;-63
2021/05/12 12:24:16;;;;;;;;;;;;;;;;;;5013165;28;20092;-63
2021/05/12 12:27:03;;;;;;;3.55;0.93;;;;;;;;;;5012543;28;19922;-62
2021/05/12 12:29:49;;;;;;;5.32;1.02;;;;;;;;;;5011878;28;20054;-63
2021/05/12 12:32:34;;;;;;;6.82;1.52;;;;;;;;;;5009152;28;20045;-63
2021/05/12 12:35:20;;;;;;;4.80;1.10;;;;;;;;;;4997597;28;20046;-63
2021/05/12 12:38:14;;;;;;;3.47;0.93;;;;;;;;;;4992951;28;20129;-63
2021/05/12 12:40:59;;;;;;;4.55;1.30;;;;;;;;;;4991497;28;20046;-63
2021/05/12 12:43:45;;;;;;;5.40;1.00;;;;;;;;;;4990577;28;20104;-63
2021/05/12 12:46:30;;;;;;;8.70;1.80;;;;;;;;;;4991717;28;20054;-63
2021/05/12 12:49:15;;;;;;;8.80;1.50;;;;;;;;;;4992727;28;20493;-63
2021/05/12 12:52:09;;;;;;;8.70;1.92;;;;;;;;;;4989804;28;20049;-64
2021/05/12 12:54:58;;;;;;;3.95;1.23;;;;;;;;;;5012069;28;20057;-63
2021/05/12 12:57:44;;;;;;;8.93;1.58;;;;;;;;;;5011046;28;20069;-63
2021/05/12 13:00:32;;;;;;;5.53;1.40;;;;;;;;;;5011185;28;20140;-62
2021/05/12 13:03:24;;;;;;;6.80;1.45;;;;;;;;;;5009098;28;20578;-62
2021/05/12 13:06:09;;;;;;;5.80;1.30;;;;;;;;;;5004007;28;20058;-62
2021/05/12 13:08:54;;;;;;;5.75;1.20;;;;;;;;;;5003941;28;20038;-62
2021/05/12 13:12:06;;;;;;;4.60;1.08;;;;;;;;;;5010789;28;20073;-62
2021/05/12 13:14:54;;;;;;;6.22;1.75;;;;;;;;;;5009935;28;20073;-62
2021/05/12 13:17:50;;;;;;;3.92;1.30;;;;;;;;;;5010159;28;20058;-62
2021/05/12 13:20:36;;;;;;;7.70;1.67;;;;;;;;;;5007896;28;20493;-62
2021/05/12 13:23:26;;;;;;;6.03;1.30;;;;;;;;;;5007833;28;20042;-62
2021/05/12 13:26:13;;;;;;;7.35;1.55;;;;;;;;;;5004322;28;20050;-62
2021/05/12 13:28:58;;;;;;;5.97;1.25;;;;;;;;;;4998446;28;20121;-63
2021/05/12 13:31:44;;;;;;;4.68;1.30;;;;;;;;;;4998044;28;20128;-63
2021/05/12 13:34:30;;;;;;;5.07;1.08;;;;;;;;;;4998633;28;20060;-62
2021/05/12 13:37:15;;;;;;;3.85;1.10;;;;;;;;;;5003819;28;20081;-63
2021/05/12 13:40:00;;;;;;;6.20;1.55;;;;;;;;;;5011044;28;20046;-62
2021/05/12 13:42:46;;;;;;;5.82;1.33;;;;;;;;;;5009443;28;20058;-62
2021/05/12 13:45:31;;;;;;;6.47;1.50;;;;;;;;;;5007393;28;20069;-63
2021/05/12 13:48:17;;;;;;;8.20;1.95;;;;;;;;;;5011374;28;20065;-63
2021/05/12 13:51:02;;;;;;;8.18;1.23;;;;;;;;;;5005953;28;20058;-63
2021/05/12 13:56:39;;;;;;;4.75;1.30;;;;;;;;;;5009527;28;20057;-63
2021/05/12 14:05:03;;;;;;;5.93;1.53;;;;;;;;;;5009742;28;20088;-63
2021/05/12 14:07:50;;;;;;;3.97;1.00;;;;;;;;;;4974830;28;20058;-63
2021/05/12 14:10:37;;;;;;;6.50;1.38;;;;;;;;;;4990155;28;20046;-63
2021/05/12 14:13:27;;;;;;;7.32;1.40;;;;;;;;;;4991055;28;20125;-63
2021/05/12 14:16:20;;;;;;;4.50;1.48;;;;;;;;;;5003093;28;20049;-63
2021/05/12 14:19:05;;;;;;;6.57;1.55;;;;;;;;;;5010669;28;20054;-63
2021/05/12 14:21:56;;;;;;;7.15;1.52;;;;;;;;;;5010119;28;20074;-63
2021/05/12 14:24:41;;;;;;;8.88;1.20;;;;;;;;;;5010110;28;20050;-62
2021/05/12 14:27:29;;;;;;;7.00;1.70;;;;;;;;;;5009756;28;20452;-63
2021/05/12 14:30:15;;;;;;;5.70;1.40;;;;;;;;;;5010308;28;20516;-63
2021/05/12 14:33:00;;;;;;;5.03;1.17;;;;;;;;;;5010657;28;20137;-63
2021/05/12 14:35:45;;;;;;;5.28;1.83;;;;;;;;;;5008412;28;20095;-63
2021/05/12 14:38:32;;;;;;;5.80;1.35;;;;;;;;;;5008297;28;20050;-63
2021/05/12 14:41:17;;;;;;;5.63;1.08;;;;;;;;;;5010443;28;20046;-64
2021/05/12 14:44:02;;;;;;;4.82;1.02;;;;;;;;;;5010299;28;20583;-63
2021/05/12 14:46:48;;;;;;;4.35;1.17;;;;;;;;;;5008041;28;20412;-64
2021/05/12 14:49:35;;;;;;;4.32;1.10;;;;;;;;;;5008006;28;20058;-63
2021/05/12 14:59:04;;;;;;;6.03;1.20;;;;;;;;;;5009230;28;20077;-64
2021/05/12 15:07:50;;;;;;;3.72;0.70;;;;;;;;;;5000107;28;20110;-63
2021/05/12 15:10:36;;;;;;;7.03;1.35;;;;;;;;;;5009075;28;20046;-64
2021/05/12 15:13:22;;;;;;;6.18;1.60;;;;;;;;;;5008965;28;20065;-62
2021/05/12 15:16:07;;;;;;;8.90;1.63;;;;;;;;;;5009639;28;20262;-63
2021/05/12 15:18:52;;;;;;;6.80;1.80;;;;;;;;;;5007652;28;20050;-63
2021/05/12 15:21:37;;;;;;;10.45;1.80;;;;;;;;;;5008640;28;20080;-63
2021/05/12 15:24:25;;;;;;;6.35;1.60;;;;;;;;;;5008057;28;20050;-62
2021/05/12 15:27:10;;;;;;;6.95;1.38;;;;;;;;;;5008038;28;20057;-62
2021/05/12 15:29:56;;;;;;;9.48;2.20;;;;;;;;;;4979986;28;20379;-62
2021/05/12 15:32:41;;;;;;;12.80;2.13;;;;;;;;;;4995462;28;20042;-63
2021/05/12 15:35:27;;;;;;;5.10;1.13;;;;;;;;;;5001227;28;20053;-62
2021/05/12 15:38:12;;;;;;;8.27;1.77;;;;;;;;;;4995239;28;20932;-62
2021/05/12 15:40:57;;;;;;;7.45;1.65;;;;;;;;;;5004849;28;20121;-62
2021/05/12 15:43:43;;;;;;;10.23;2.70;;;;;;;;;;4993556;28;20104;-62
2021/05/12 15:46:28;;;;;;;8.75;2.35;;;;;;;;;;4992461;28;20050;-62
2021/05/12 15:49:14;;;;;;;6.22;1.70;;;;;;;;;;5002286;28;20050;-63
2021/05/12 15:51:59;;;;;;;8.38;2.03;;;;;;;;;;5007513;28;20493;-63
2021/05/12 15:54:44;;;;;;;11.85;1.75;;;;;;;;;;5011794;28;20148;-63
2021/05/12 15:57:30;;;;;;;9.45;2.00;;;;;;;;;;5012648;28;20492;-62
2021/05/12 16:00:15;;;;;;;8.55;1.80;;;;;;;;;;5010391;28;20200;-63
2021/05/12 16:03:01;;;;;;;8.05;2.20;;;;;;;;;;5005896;28;20045;-62
2021/05/12 16:05:46;;;;;;;10.25;2.05;;;;;;;;;;4996647;28;20053;-62
2021/05/12 16:08:33;;;;;;;11.65;1.70;;;;;;;;;;5012771;28;20492;-62
2021/05/12 16:11:19;;;;;;;5.03;1.58;;;;;;;;;;5012749;28;20042;-62
2021/05/12 16:14:04;;;;;;;9.35;1.60;;;;;;;;;;5013035;28;20083;-62
2021/05/12 16:17:02;;;;;;;6.90;1.77;;;;;;;;;;5011472;28;20058;-62
2021/05/12 16:19:47;;;;;;;8.02;1.98;;;;;;;;;;5010692;28;20050;-62
2021/05/12 16:22:33;;;;;;;7.10;1.42;;;;;;;;;;5012121;28;20100;-62
2021/05/12 16:25:18;;;;;;;9.50;1.88;;;;;;;;;;5012512;28;20057;-62
2021/05/12 16:28:04;;;;;;;5.80;1.60;;;;;;;;;;5013021;28;20054;-63
2021/05/12 16:30:50;;;;;;;6.82;1.45;;;;;;;;;;5010501;28;20045;-62
2021/05/12 16:33:36;;;;;;;7.75;1.88;;;;;;;;;;5011226;28;20538;-62
2021/05/12 16:36:21;;;;;;;6.72;1.48;;;;;;;;;;5004164;28;20117;-62
2021/05/12 16:39:06;;;;;;;11.82;1.50;;;;;;;;;;4993141;28;20038;-65
2021/05/12 16:41:51;;;;;;;4.47;1.30;;;;;;;;;;5007176;28;20046;-66
2021/05/12 16:44:37;;;;;;;3.63;1.33;;;;;;;;;;5011137;28;20045;-66
2021/05/12 16:47:22;;;;;;;5.53;1.23;;;;;;;;;;5012802;28;20137;-66
2021/05/12 16:50:08;;;;;;;4.00;0.88;;;;;;;;;;5011653;28;20062;-66
2021/05/12 16:52:55;;;;;;;5.05;1.15;;;;;;;;;;5007206;28;20049;-66
2021/05/12 16:55:41;;;;;;;6.28;1.30;;;;;;;;;;5011660;28;20054;-65
2021/05/12 16:58:26;;;;;;;5.78;1.42;;;;;;;;;;5012280;28;20497;-65
2021/05/12 17:01:13;;;;;;;6.57;1.40;;;;;;;;;;5010598;28;20037;-65
2021/05/12 17:03:58;;;;;;;7.50;1.67;;;;;;;;;;5010877;28;20132;-64